createdAt,value
2017-04-16T00:00:04.778Z,0
2017-04-16T00:01:05.165Z,0
2017-04-16T00:02:05.846Z,0
2017-04-16T00:03:06.232Z,0
2017-04-16T00:04:06.763Z,0
2017-04-16T00:05:07.289Z,0
2017-04-16T00:06:07.817Z,0
2017-04-16T00:07:08.350Z,0
2017-04-16T00:08:08.908Z,0
2017-04-16T00:09:09.411Z,0
2017-04-16T00:10:09.953Z,0
2017-04-16T00:11:10.473Z,0
2017-04-16T00:12:11.008Z,0
2017-04-16T00:13:11.535Z,0
2017-04-16T00:14:12.212Z,0
2017-04-16T00:15:12.598Z,0
2017-04-16T00:16:13.126Z,0
2017-04-16T00:17:13.663Z,0
2017-04-16T00:18:14.194Z,0
2017-04-16T00:19:14.724Z,0
2017-04-16T00:20:15.401Z,0
2017-04-16T00:21:15.784Z,0
2017-04-16T00:22:16.462Z,0
2017-04-16T00:23:16.854Z,0
2017-04-16T00:24:17.376Z,0
2017-04-16T00:25:17.905Z,0
2017-04-16T00:26:18.441Z,0
2017-04-16T00:27:18.972Z,0
2017-04-16T00:28:19.500Z,0
2017-04-16T00:29:20.032Z,0
2017-04-16T00:30:20.562Z,0
2017-04-16T00:31:21.098Z,0
2017-04-16T00:32:21.624Z,0
2017-04-16T00:33:22.156Z,0
2017-04-16T00:34:22.694Z,0
2017-04-16T00:35:23.215Z,0
2017-04-16T00:36:23.746Z,0
2017-04-16T00:37:24.286Z,0
2017-04-16T00:38:24.811Z,0
2017-04-16T00:39:25.346Z,0
2017-04-16T00:40:25.880Z,0
2017-04-16T00:41:26.416Z,0
2017-04-16T00:42:26.949Z,0
2017-04-16T00:43:27.483Z,0
2017-04-16T00:44:28.163Z,0
2017-04-16T00:45:28.543Z,0
2017-04-16T00:46:29.074Z,0
2017-04-16T00:47:29.599Z,0
2017-04-16T00:48:30.129Z,0
2017-04-16T00:49:30.661Z,0
2017-04-16T00:50:31.191Z,0
2017-04-16T00:51:31.720Z,0
2017-04-16T00:52:32.250Z,0
2017-04-16T00:53:32.794Z,0
2017-04-16T00:54:33.305Z,0
2017-04-16T00:55:33.837Z,0
2017-04-16T00:56:34.511Z,0
2017-04-16T00:57:34.899Z,0
2017-04-16T00:58:35.434Z,0
2017-04-16T00:59:35.956Z,0
2017-04-16T01:00:36.488Z,0
2017-04-16T01:01:37.018Z,0
2017-04-16T01:02:37.550Z,0
2017-04-16T01:03:38.081Z,0
2017-04-16T01:04:38.612Z,0
2017-04-16T01:05:39.151Z,0
2017-04-16T01:06:39.671Z,0
2017-04-16T01:07:40.206Z,0
2017-04-16T01:08:40.732Z,0
2017-04-16T01:09:41.263Z,0
2017-04-16T01:10:41.791Z,0
2017-04-16T01:11:42.322Z,0
2017-04-16T01:12:42.846Z,0
2017-04-16T01:13:43.382Z,0
2017-04-16T01:14:43.915Z,0
2017-04-16T01:15:44.447Z,0
2017-04-16T01:16:44.975Z,0
2017-04-16T01:17:45.507Z,0
2017-04-16T01:18:46.066Z,0
2017-04-16T01:19:46.578Z,0
2017-04-16T01:20:47.258Z,0
2017-04-16T01:21:47.955Z,0
2017-04-16T01:22:48.201Z,0
2017-04-16T01:23:48.714Z,0
2017-04-16T01:24:49.393Z,0
2017-04-16T01:25:49.773Z,0
2017-04-16T01:26:50.456Z,0
2017-04-16T01:27:50.834Z,0
2017-04-16T01:28:51.366Z,0
2017-04-16T01:29:51.896Z,0
2017-04-16T01:30:52.430Z,0
2017-04-16T01:31:53.102Z,0
2017-04-16T01:32:53.501Z,0
2017-04-16T01:33:54.021Z,0
2017-04-16T01:34:54.546Z,0
2017-04-16T01:35:55.078Z,0
2017-04-16T01:36:55.604Z,0
2017-04-16T01:37:56.151Z,0
2017-04-16T01:38:56.816Z,0
2017-04-16T01:39:57.204Z,0
2017-04-16T01:40:57.730Z,0
2017-04-16T01:41:58.260Z,0
2017-04-16T01:42:58.795Z,0
2017-04-16T01:43:59.321Z,0
2017-04-16T01:44:59.859Z,0
2017-04-16T01:46:00.386Z,0
2017-04-16T01:47:01.066Z,0
2017-04-16T01:48:01.445Z,0
2017-04-16T01:49:01.975Z,0
2017-04-16T01:50:02.507Z,0
2017-04-16T01:51:03.033Z,0
2017-04-16T01:52:03.715Z,0
2017-04-16T01:53:04.099Z,0
2017-04-16T01:54:04.631Z,0
2017-04-16T01:55:05.158Z,0
2017-04-16T01:56:05.693Z,0
2017-04-16T01:57:06.226Z,0
2017-04-16T01:58:06.769Z,0
2017-04-16T01:59:07.282Z,0
2017-04-16T02:00:07.814Z,0
2017-04-16T02:01:08.344Z,0
2017-04-16T02:02:08.880Z,0
2017-04-16T02:03:09.409Z,0
2017-04-16T02:04:09.946Z,0
2017-04-16T02:05:10.477Z,0
2017-04-16T02:06:11.012Z,0
2017-04-16T02:07:11.545Z,0
2017-04-16T02:08:12.077Z,0
2017-04-16T02:09:12.614Z,0
2017-04-16T02:10:13.141Z,0
2017-04-16T02:11:13.822Z,0
2017-04-16T02:12:14.205Z,0
2017-04-16T02:13:14.738Z,0
2017-04-16T02:14:15.266Z,0
2017-04-16T02:15:15.806Z,0
2017-04-16T02:16:16.328Z,0
2017-04-16T02:17:16.858Z,0
2017-04-16T02:18:17.386Z,0
2017-04-16T02:19:17.922Z,0
2017-04-16T02:20:18.597Z,0
2017-04-16T02:21:18.975Z,0
2017-04-16T02:22:19.515Z,0
2017-04-16T02:23:20.044Z,0
2017-04-16T02:24:20.597Z,0
2017-04-16T02:25:21.107Z,0
2017-04-16T02:26:21.636Z,0
2017-04-16T02:27:22.169Z,0
2017-04-16T02:28:22.704Z,0
2017-04-16T02:29:23.242Z,0
2017-04-16T02:30:23.767Z,0
2017-04-16T02:31:24.294Z,0
2017-04-16T02:32:24.969Z,0
2017-04-16T02:33:25.355Z,0
2017-04-16T02:34:25.893Z,0
2017-04-16T02:35:26.416Z,0
2017-04-16T02:36:26.950Z,0
2017-04-16T02:37:27.476Z,0
2017-04-16T02:38:28.023Z,0
2017-04-16T02:39:28.569Z,0
2017-04-16T02:40:29.064Z,0
2017-04-16T02:41:29.594Z,0
2017-04-16T02:42:30.129Z,0
2017-04-16T02:43:30.656Z,0
2017-04-16T02:44:31.197Z,0
2017-04-16T02:45:31.727Z,0
2017-04-16T02:46:32.263Z,0
2017-04-16T02:47:32.795Z,0
2017-04-16T02:48:33.334Z,0
2017-04-16T02:49:33.863Z,0
2017-04-16T02:50:34.398Z,0
2017-04-16T02:51:34.930Z,0
2017-04-16T02:52:35.461Z,0
2017-04-16T02:53:36.001Z,0
2017-04-16T02:54:36.519Z,0
2017-04-16T02:55:37.045Z,0
2017-04-16T02:56:37.579Z,0
2017-04-16T02:57:38.263Z,0
2017-04-16T02:58:38.648Z,0
2017-04-16T02:59:39.322Z,0
2017-04-16T03:00:39.704Z,0
2017-04-16T03:01:40.238Z,0
2017-04-16T03:02:40.765Z,0
2017-04-16T03:03:41.293Z,0
2017-04-16T03:04:41.826Z,0
2017-04-16T03:05:42.356Z,0
2017-04-16T03:06:42.890Z,0
2017-04-16T03:07:43.420Z,0
2017-04-16T03:08:43.948Z,0
2017-04-16T03:09:44.514Z,0
2017-04-16T03:10:45.013Z,0
2017-04-16T03:11:45.696Z,0
2017-04-16T03:12:46.080Z,0
2017-04-16T03:13:46.605Z,0
2017-04-16T03:14:47.137Z,0
2017-04-16T03:15:47.816Z,0
2017-04-16T03:16:48.202Z,0
2017-04-16T03:17:48.879Z,0
2017-04-16T03:18:49.262Z,0
2017-04-16T03:19:49.799Z,0
2017-04-16T03:20:50.468Z,0
2017-04-16T03:21:50.889Z,0
2017-04-16T03:22:51.395Z,0
2017-04-16T03:23:51.915Z,0
2017-04-16T03:24:52.448Z,0
2017-04-16T03:25:53.131Z,0
2017-04-16T03:26:53.516Z,0
2017-04-16T03:27:54.049Z,0
2017-04-16T03:28:54.584Z,0
2017-04-16T03:29:55.115Z,0
2017-04-16T03:30:55.651Z,0
2017-04-16T03:31:56.325Z,0
2017-04-16T03:32:56.711Z,0
2017-04-16T03:33:57.240Z,0
2017-04-16T03:34:57.769Z,0
2017-04-16T03:35:58.297Z,0
2017-04-16T03:36:58.830Z,0
2017-04-16T03:37:59.360Z,0
2017-04-16T03:38:59.891Z,0
2017-04-16T03:40:00.422Z,0
2017-04-16T03:41:00.951Z,0
2017-04-16T03:42:01.485Z,0
2017-04-16T03:43:02.018Z,0
2017-04-16T03:44:02.552Z,0
2017-04-16T03:45:03.077Z,4
2017-04-16T03:46:03.757Z,4
2017-04-16T03:47:04.140Z,4
2017-04-16T03:48:04.674Z,0
2017-04-16T03:49:05.202Z,4
2017-04-16T03:50:05.729Z,4
2017-04-16T03:51:06.265Z,8
2017-04-16T03:52:06.788Z,4
2017-04-16T03:53:07.320Z,8
2017-04-16T03:54:07.848Z,8
2017-04-16T03:55:08.377Z,12
2017-04-16T03:56:08.916Z,12
2017-04-16T03:57:09.438Z,16
2017-04-16T03:58:09.999Z,16
2017-04-16T03:59:10.501Z,20
2017-04-16T04:00:11.033Z,24
2017-04-16T04:01:11.566Z,28
2017-04-16T04:02:12.099Z,36
2017-04-16T04:03:12.634Z,40
2017-04-16T04:04:13.159Z,48
2017-04-16T04:05:13.689Z,56
2017-04-16T04:06:14.223Z,68
2017-04-16T04:07:14.761Z,76
2017-04-16T04:08:15.291Z,88
2017-04-16T04:09:15.824Z,100
2017-04-16T04:10:16.361Z,120
2017-04-16T04:11:16.885Z,140
2017-04-16T04:12:17.414Z,156
2017-04-16T04:13:18.091Z,180
2017-04-16T04:14:18.483Z,204
2017-04-16T04:15:19.011Z,236
2017-04-16T04:16:19.692Z,272
2017-04-16T04:17:20.078Z,308
2017-04-16T04:18:20.623Z,348
2017-04-16T04:19:21.135Z,396
2017-04-16T04:20:21.662Z,448
2017-04-16T04:21:22.188Z,504
2017-04-16T04:22:22.723Z,564
2017-04-16T04:23:23.255Z,628
2017-04-16T04:24:23.784Z,692
2017-04-16T04:25:24.312Z,752
2017-04-16T04:26:24.843Z,816
2017-04-16T04:27:25.377Z,888
2017-04-16T04:28:25.905Z,964
2017-04-16T04:29:26.441Z,1044
2017-04-16T04:30:26.970Z,1132
2017-04-16T04:31:27.505Z,1224
2017-04-16T04:32:28.185Z,1312
2017-04-16T04:33:28.572Z,1404
2017-04-16T04:34:29.095Z,1496
2017-04-16T04:35:29.630Z,1604
2017-04-16T04:36:30.155Z,1720
2017-04-16T04:37:30.689Z,1832
2017-04-16T04:38:31.221Z,1944
2017-04-16T04:39:31.751Z,2080
2017-04-16T04:40:32.277Z,2220
2017-04-16T04:41:32.813Z,2396
2017-04-16T04:42:33.491Z,2688
2017-04-16T04:43:33.868Z,2876
2017-04-16T04:44:34.405Z,2872
2017-04-16T04:45:34.928Z,2920
2017-04-16T04:46:35.458Z,3012
2017-04-16T04:47:36.024Z,3164
2017-04-16T04:48:36.674Z,3328
2017-04-16T04:49:37.061Z,3528
2017-04-16T04:50:37.591Z,3812
2017-04-16T04:51:38.129Z,3892
2017-04-16T04:52:38.818Z,3976
2017-04-16T04:53:39.204Z,4084
2017-04-16T04:54:39.731Z,4116
2017-04-16T04:55:40.266Z,4216
2017-04-16T04:56:40.795Z,4380
2017-04-16T04:57:41.327Z,4508
2017-04-16T04:58:41.855Z,4644
2017-04-16T04:59:42.390Z,4748
2017-04-16T05:00:43.066Z,4780
2017-04-16T05:01:43.451Z,4824
2017-04-16T05:02:43.979Z,4920
2017-04-16T05:03:44.502Z,4988
2017-04-16T05:04:45.035Z,5056
2017-04-16T05:05:45.712Z,5188
2017-04-16T05:06:46.092Z,5344
2017-04-16T05:07:46.623Z,5420
2017-04-16T05:08:47.179Z,5488
2017-04-16T05:09:47.690Z,5604
2017-04-16T05:10:48.221Z,5664
2017-04-16T05:11:48.742Z,5672
2017-04-16T05:12:49.274Z,5660
2017-04-16T05:13:49.811Z,5832
2017-04-16T05:14:50.335Z,6156
2017-04-16T05:15:50.868Z,6460
2017-04-16T05:16:51.429Z,6868
2017-04-16T05:17:51.926Z,7424
2017-04-16T05:18:52.453Z,8076
2017-04-16T05:19:53.135Z,8468
2017-04-16T05:20:53.517Z,8660
2017-04-16T05:21:54.043Z,8952
2017-04-16T05:22:54.722Z,9904
2017-04-16T05:23:55.103Z,11220
2017-04-16T05:24:55.785Z,12384
2017-04-16T05:25:56.165Z,11196
2017-04-16T05:26:56.847Z,9512
2017-04-16T05:27:57.224Z,8760
2017-04-16T05:28:57.910Z,8244
2017-04-16T05:29:58.296Z,8348
2017-04-16T05:30:58.840Z,9420
2017-04-16T05:31:59.366Z,9328
2017-04-16T05:32:59.903Z,9280
2017-04-16T05:34:00.433Z,9400
2017-04-16T05:35:00.972Z,9600
2017-04-16T05:36:01.493Z,9000
2017-04-16T05:37:02.029Z,8584
2017-04-16T05:38:02.557Z,8824
2017-04-16T05:39:03.089Z,9448
2017-04-16T05:40:03.620Z,10264
2017-04-16T05:41:04.160Z,10392
2017-04-16T05:42:04.681Z,10600
2017-04-16T05:43:05.215Z,10968
2017-04-16T05:44:05.744Z,11564
2017-04-16T05:45:06.283Z,10972
2017-04-16T05:46:06.806Z,11268
2017-04-16T05:47:07.336Z,14004
2017-04-16T05:48:07.865Z,20480
2017-04-16T05:49:08.395Z,21920
2017-04-16T05:50:08.929Z,14252
2017-04-16T05:51:09.484Z,13604
2017-04-16T05:52:09.991Z,12448
2017-04-16T05:53:10.674Z,11044
2017-04-16T05:54:11.057Z,10240
2017-04-16T05:55:11.583Z,10188
2017-04-16T05:56:12.119Z,11632
2017-04-16T05:57:12.666Z,14276
2017-04-16T05:58:13.194Z,15104
2017-04-16T05:59:13.711Z,14308
2017-04-16T06:00:14.241Z,14872
2017-04-16T06:01:14.774Z,15572
2017-04-16T06:02:15.304Z,16188
2017-04-16T06:03:15.832Z,15080
2017-04-16T06:04:16.363Z,13824
2017-04-16T06:05:17.048Z,14272
2017-04-16T06:06:17.426Z,15760
2017-04-16T06:07:17.958Z,20608
2017-04-16T06:08:18.631Z,19172
2017-04-16T06:09:19.017Z,18476
2017-04-16T06:10:19.690Z,16736
2017-04-16T06:11:20.075Z,25856
2017-04-16T06:12:20.612Z,24960
2017-04-16T06:13:21.294Z,14608
2017-04-16T06:14:21.678Z,13752
2017-04-16T06:15:22.211Z,13704
2017-04-16T06:16:22.746Z,13972
2017-04-16T06:17:23.425Z,14244
2017-04-16T06:18:23.808Z,13608
2017-04-16T06:19:24.334Z,13076
2017-04-16T06:20:24.868Z,13316
2017-04-16T06:21:25.550Z,13956
2017-04-16T06:22:26.085Z,14360
2017-04-16T06:23:26.462Z,15648
2017-04-16T06:24:26.993Z,17284
2017-04-16T06:25:27.524Z,19040
2017-04-16T06:26:28.053Z,20704
2017-04-16T06:27:28.587Z,41568
2017-04-16T06:28:29.117Z,38080
2017-04-16T06:29:29.648Z,28480
2017-04-16T06:30:30.182Z,39296
2017-04-16T06:31:30.707Z,23360
2017-04-16T06:32:31.243Z,13280
2017-04-16T06:33:31.773Z,6708
2017-04-16T06:34:32.301Z,5176
2017-04-16T06:35:32.824Z,4436
2017-04-16T06:36:33.364Z,4640
2017-04-16T06:37:34.043Z,6472
2017-04-16T06:38:34.426Z,9332
2017-04-16T06:39:34.962Z,13092
2017-04-16T06:40:35.492Z,15156
2017-04-16T06:41:36.032Z,15720
2017-04-16T06:42:36.554Z,16964
2017-04-16T06:43:37.085Z,28256
2017-04-16T06:44:37.616Z,41024
2017-04-16T06:45:38.147Z,39680
2017-04-16T06:46:38.681Z,32992
2017-04-16T06:47:39.211Z,27424
2017-04-16T06:48:39.746Z,19684
2017-04-16T06:49:40.281Z,14244
2017-04-16T06:50:40.950Z,12764
2017-04-16T06:51:41.333Z,12600
2017-04-16T06:52:41.867Z,13952
2017-04-16T06:53:42.399Z,19220
2017-04-16T06:54:42.932Z,44992
2017-04-16T06:55:43.470Z,29696
2017-04-16T06:56:44.009Z,32576
2017-04-16T06:57:44.696Z,35040
2017-04-16T06:58:45.073Z,43072
2017-04-16T06:59:45.609Z,33568
2017-04-16T07:00:46.133Z,35424
2017-04-16T07:01:46.659Z,54240
2017-04-16T07:02:47.194Z,56480
2017-04-16T07:03:47.722Z,57408
2017-04-16T07:04:48.252Z,58816
2017-04-16T07:05:48.932Z,60608
2017-04-16T07:06:49.313Z,36704
2017-04-16T07:07:49.845Z,48288
2017-04-16T07:08:50.371Z,27168
2017-04-16T07:09:50.907Z,29984
2017-04-16T07:10:51.441Z,61632
2017-04-16T07:11:51.965Z,26176
2017-04-16T07:12:52.498Z,39136
2017-04-16T07:13:53.030Z,23392
2017-04-16T07:14:53.562Z,26208
2017-04-16T07:15:54.099Z,66656
2017-04-16T07:16:54.624Z,67328
2017-04-16T07:17:55.152Z,69408
2017-04-16T07:18:55.688Z,70080
2017-04-16T07:19:56.218Z,70336
2017-04-16T07:20:56.744Z,72544
2017-04-16T07:21:57.285Z,74816
2017-04-16T07:22:57.802Z,81536
2017-04-16T07:23:58.343Z,48640
2017-04-16T07:24:58.861Z,42336
2017-04-16T07:25:59.544Z,33024
2017-04-16T07:26:59.918Z,28832
2017-04-16T07:28:00.455Z,33664
2017-04-16T07:29:00.972Z,50912
2017-04-16T07:30:01.503Z,29696
2017-04-16T07:31:02.036Z,22464
2017-04-16T07:32:02.562Z,16080
2017-04-16T07:33:03.094Z,15208
2017-04-16T07:34:03.625Z,16480
2017-04-16T07:35:04.162Z,17248
2017-04-16T07:36:04.694Z,16988
2017-04-16T07:37:05.232Z,18276
2017-04-16T07:38:05.765Z,23712
2017-04-16T07:39:06.299Z,30208
2017-04-16T07:40:06.981Z,36480
2017-04-16T07:41:07.361Z,36320
2017-04-16T07:42:07.903Z,31360
2017-04-16T07:43:08.567Z,25280
2017-04-16T07:44:08.949Z,19416
2017-04-16T07:45:09.488Z,14904
2017-04-16T07:46:10.021Z,11932
2017-04-16T07:47:10.688Z,9988
2017-04-16T07:48:11.069Z,9752
2017-04-16T07:49:11.596Z,10884
2017-04-16T07:50:12.278Z,10544
2017-04-16T07:51:12.663Z,8740
2017-04-16T07:52:13.185Z,7320
2017-04-16T07:53:13.719Z,5956
2017-04-16T07:54:14.249Z,5504
2017-04-16T07:55:14.776Z,5768
2017-04-16T07:56:15.339Z,7936
2017-04-16T07:57:15.838Z,12388
2017-04-16T07:58:16.363Z,19916
2017-04-16T07:59:16.899Z,28896
2017-04-16T08:00:17.426Z,28704
2017-04-16T08:01:17.958Z,25504
2017-04-16T08:02:18.486Z,26112
2017-04-16T08:03:19.023Z,24608
2017-04-16T08:04:19.845Z,19432
2017-04-16T08:05:20.083Z,18604
2017-04-16T08:06:20.608Z,23712
2017-04-16T08:07:21.136Z,35200
2017-04-16T08:08:21.813Z,51040
2017-04-16T08:09:22.196Z,49312
2017-04-16T08:10:22.727Z,41056
2017-04-16T08:11:23.253Z,36864
2017-04-16T08:12:23.935Z,87520
2017-04-16T08:13:24.312Z,88736
2017-04-16T08:14:24.876Z,27520
2017-04-16T08:15:25.378Z,96256
2017-04-16T08:16:25.900Z,92256
2017-04-16T08:17:26.438Z,82496
2017-04-16T08:18:26.974Z,79040
2017-04-16T08:19:27.503Z,90656
2017-04-16T08:20:28.036Z,95680
2017-04-16T08:21:28.571Z,101216
2017-04-16T08:22:29.248Z,47072
2017-04-16T08:23:29.631Z,111488
2017-04-16T08:24:30.162Z,74880
2017-04-16T08:25:30.688Z,114976
2017-04-16T08:26:31.218Z,110720
2017-04-16T08:27:31.750Z,112640
2017-04-16T08:28:32.280Z,108544
2017-04-16T08:29:32.813Z,42880
2017-04-16T08:30:33.343Z,45056
2017-04-16T08:31:33.897Z,97184
2017-04-16T08:32:34.402Z,62656
2017-04-16T08:33:34.930Z,47904
2017-04-16T08:34:35.465Z,46240
2017-04-16T08:35:36.137Z,66560
2017-04-16T08:36:36.526Z,109536
2017-04-16T08:37:37.052Z,38432
2017-04-16T08:38:37.733Z,41120
2017-04-16T08:39:38.110Z,50048
2017-04-16T08:40:38.639Z,46240
2017-04-16T08:41:39.174Z,41472
2017-04-16T08:42:39.700Z,38176
2017-04-16T08:43:40.230Z,36800
2017-04-16T08:44:40.909Z,36416
2017-04-16T08:45:41.297Z,37664
2017-04-16T08:46:41.814Z,44032
2017-04-16T08:47:42.349Z,71712
2017-04-16T08:48:42.879Z,39264
2017-04-16T08:49:43.414Z,42560
2017-04-16T08:50:43.934Z,81408
2017-04-16T08:51:44.472Z,95584
2017-04-16T08:52:44.997Z,25792
2017-04-16T08:53:45.529Z,14848
2017-04-16T08:54:46.058Z,11280
2017-04-16T08:55:46.586Z,9020
2017-04-16T08:56:47.114Z,8004
2017-04-16T08:57:47.647Z,7968
2017-04-16T08:58:48.176Z,8300
2017-04-16T08:59:48.857Z,8600
2017-04-16T09:00:49.245Z,8560
2017-04-16T09:01:49.780Z,8968
2017-04-16T09:02:50.311Z,9600
2017-04-16T09:03:50.844Z,11456
2017-04-16T09:04:51.370Z,14500
2017-04-16T09:05:51.901Z,16908
2017-04-16T09:06:52.462Z,19644
2017-04-16T09:07:52.967Z,33760
2017-04-16T09:08:53.493Z,117568
2017-04-16T09:09:54.024Z,55040
2017-04-16T09:10:54.555Z,112032
2017-04-16T09:12:55.764Z,111808
2017-04-16T09:13:56.290Z,115008
2017-04-16T09:14:56.824Z,115488
2017-04-16T09:15:57.202Z,120096
2017-04-16T09:16:57.730Z,120160
2017-04-16T09:17:58.262Z,49632
2017-04-16T09:18:58.789Z,119008
2017-04-16T09:19:59.325Z,116000
2017-04-16T09:20:59.852Z,40128
2017-04-16T09:22:00.381Z,46304
2017-04-16T09:23:00.920Z,131168
2017-04-16T09:24:01.442Z,125696
2017-04-16T09:25:01.971Z,42112
2017-04-16T09:26:02.501Z,75616
2017-04-16T09:27:03.181Z,124128
2017-04-16T09:28:03.563Z,28544
2017-04-16T09:29:04.098Z,24288
2017-04-16T09:30:04.622Z,25152
2017-04-16T09:31:05.154Z,56512
2017-04-16T09:32:05.685Z,124864
2017-04-16T09:33:06.213Z,119808
2017-04-16T09:34:06.742Z,121472
2017-04-16T09:35:07.275Z,119040
2017-04-16T09:36:07.804Z,118112
2017-04-16T09:37:08.483Z,108384
2017-04-16T09:38:09.012Z,122656
2017-04-16T09:39:09.393Z,127264
2017-04-16T09:40:09.918Z,136448
2017-04-16T09:41:10.451Z,141216
2017-04-16T09:42:10.986Z,99008
2017-04-16T09:43:11.538Z,66944
2017-04-16T09:44:12.054Z,38272
2017-04-16T09:45:12.579Z,40032
2017-04-16T09:46:13.117Z,47360
2017-04-16T09:47:13.635Z,130592
2017-04-16T09:48:14.170Z,31136
2017-04-16T09:49:14.697Z,25408
2017-04-16T09:50:15.231Z,21600
2017-04-16T09:51:15.764Z,18560
2017-04-16T09:52:16.293Z,17516
2017-04-16T09:53:16.823Z,18428
2017-04-16T09:54:17.354Z,22752
2017-04-16T09:55:17.877Z,28704
2017-04-16T09:56:18.411Z,34208
2017-04-16T09:57:19.090Z,37120
2017-04-16T09:58:19.469Z,34944
2017-04-16T09:59:19.998Z,32992
2017-04-16T10:00:20.530Z,33152
2017-04-16T10:01:21.074Z,36992
2017-04-16T10:02:21.593Z,98176
2017-04-16T10:03:22.131Z,131488
2017-04-16T10:04:22.655Z,128448
2017-04-16T10:05:23.179Z,131488
2017-04-16T10:06:23.855Z,44320
2017-04-16T10:07:24.245Z,133856
2017-04-16T10:08:24.771Z,136320
2017-04-16T10:09:25.296Z,129888
2017-04-16T10:10:25.829Z,33888
2017-04-16T10:11:26.368Z,28160
2017-04-16T10:12:26.892Z,101088
2017-04-16T10:13:27.568Z,117760
2017-04-16T10:14:27.951Z,114208
2017-04-16T10:15:28.632Z,121664
2017-04-16T10:16:29.012Z,125984
2017-04-16T10:17:29.689Z,97504
2017-04-16T10:18:30.071Z,125344
2017-04-16T10:19:30.599Z,133728
2017-04-16T10:20:31.136Z,132928
2017-04-16T10:21:31.667Z,127680
2017-04-16T10:22:32.199Z,144864
2017-04-16T10:23:32.731Z,150048
2017-04-16T10:24:33.269Z,142976
2017-04-16T10:25:33.802Z,149408
2017-04-16T10:26:34.332Z,146752
2017-04-16T10:27:34.913Z,146368
2017-04-16T10:28:35.397Z,138592
2017-04-16T10:29:35.921Z,135648
2017-04-16T10:30:36.450Z,135488
2017-04-16T10:31:36.982Z,136384
2017-04-16T10:32:37.658Z,137248
2017-04-16T10:33:38.051Z,134272
2017-04-16T10:34:38.571Z,131584
2017-04-16T10:35:39.095Z,114880
2017-04-16T10:36:39.628Z,119360
2017-04-16T10:37:40.155Z,123424
2017-04-16T10:38:40.685Z,122528
2017-04-16T10:39:41.362Z,123008
2017-04-16T10:40:41.742Z,120832
2017-04-16T10:41:42.269Z,123840
2017-04-16T10:42:42.801Z,119968
2017-04-16T10:43:43.331Z,96800
2017-04-16T10:44:43.861Z,82944
2017-04-16T10:45:44.391Z,67328
2017-04-16T10:46:44.922Z,95008
2017-04-16T10:47:45.457Z,109152
2017-04-16T10:48:45.987Z,125024
2017-04-16T10:49:46.509Z,126848
2017-04-16T10:50:47.043Z,138880
2017-04-16T10:51:47.581Z,153120
2017-04-16T10:52:48.104Z,152288
2017-04-16T10:53:48.639Z,140352
2017-04-16T10:54:49.163Z,145792
2017-04-16T10:55:49.691Z,109824
2017-04-16T10:56:50.223Z,100096
2017-04-16T10:57:50.899Z,38720
2017-04-16T10:58:51.286Z,28000
2017-04-16T10:59:51.963Z,25600
2017-04-16T11:00:52.347Z,25760
2017-04-16T11:01:52.881Z,28800
2017-04-16T11:02:53.408Z,39360
2017-04-16T11:03:53.933Z,74208
2017-04-16T11:04:54.472Z,131168
2017-04-16T11:05:55.008Z,160960
2017-04-16T11:06:55.539Z,169632
2017-04-16T11:07:56.072Z,175744
2017-04-16T11:08:56.603Z,108096
2017-04-16T11:09:57.134Z,167872
2017-04-16T11:10:57.666Z,59456
2017-04-16T11:11:58.200Z,140800
2017-04-16T11:12:58.730Z,45248
2017-04-16T11:13:59.261Z,41504
2017-04-16T11:14:59.792Z,38400
2017-04-16T11:16:00.472Z,36896
2017-04-16T11:17:00.858Z,37184
2017-04-16T11:18:01.388Z,37920
2017-04-16T11:19:01.911Z,37760
2017-04-16T11:20:02.449Z,35872
2017-04-16T11:21:02.971Z,34240
2017-04-16T11:22:03.498Z,32256
2017-04-16T11:23:04.033Z,30592
2017-04-16T11:24:04.567Z,29728
2017-04-16T11:25:05.089Z,25984
2017-04-16T11:26:05.616Z,21344
2017-04-16T11:27:06.155Z,20352
2017-04-16T11:28:06.676Z,21184
2017-04-16T11:29:07.210Z,24320
2017-04-16T11:30:07.737Z,28576
2017-04-16T11:31:08.266Z,32704
2017-04-16T11:32:08.803Z,35936
2017-04-16T11:33:09.475Z,38560
2017-04-16T11:34:09.860Z,40480
2017-04-16T11:35:10.390Z,55328
2017-04-16T11:36:10.920Z,149856
2017-04-16T11:37:11.448Z,148384
2017-04-16T11:38:11.979Z,145888
2017-04-16T11:39:12.511Z,144160
2017-04-16T11:40:13.042Z,133792
2017-04-16T11:41:13.572Z,141056
2017-04-16T11:42:14.108Z,139712
2017-04-16T11:43:14.629Z,139680
2017-04-16T11:44:15.160Z,138336
2017-04-16T11:45:15.694Z,131200
2017-04-16T11:46:16.226Z,61568
2017-04-16T11:47:16.768Z,143136
2017-04-16T11:48:17.290Z,143520
2017-04-16T11:49:17.823Z,145344
2017-04-16T11:50:18.352Z,148288
2017-04-16T11:51:18.886Z,151968
2017-04-16T11:52:19.410Z,155936
2017-04-16T11:53:19.960Z,153408
2017-04-16T11:54:20.476Z,94464
2017-04-16T11:55:21.001Z,62304
2017-04-16T11:56:21.545Z,137216
2017-04-16T11:57:22.069Z,170912
2017-04-16T11:58:22.606Z,122240
2017-04-16T11:59:23.130Z,134368
2017-04-16T12:00:23.652Z,131264
2017-04-16T12:01:24.183Z,144640
2017-04-16T12:02:24.731Z,89280
2017-04-16T12:04:25.771Z,133472
2017-04-16T12:05:26.303Z,144096
2017-04-16T12:06:26.831Z,139456
2017-04-16T12:07:27.365Z,60768
2017-04-16T12:08:27.902Z,99776
2017-04-16T12:09:28.422Z,36128
2017-04-16T12:10:29.101Z,33984
2017-04-16T12:11:29.479Z,36192
2017-04-16T12:12:30.008Z,37440
2017-04-16T12:13:30.536Z,40416
2017-04-16T12:14:31.064Z,52896
2017-04-16T12:15:31.590Z,62432
2017-04-16T12:16:32.127Z,49088
2017-04-16T12:17:32.654Z,51008
2017-04-16T12:18:33.333Z,105408
2017-04-16T12:19:33.718Z,137792
2017-04-16T12:20:34.270Z,141408
2017-04-16T12:21:34.769Z,140224
2017-04-16T12:22:35.299Z,135712
2017-04-16T12:23:35.829Z,116288
2017-04-16T12:24:36.357Z,99008
2017-04-16T12:25:36.889Z,135296
2017-04-16T12:26:37.423Z,138976
2017-04-16T12:27:37.951Z,137440
2017-04-16T12:28:38.489Z,84576
2017-04-16T12:29:39.017Z,61312
2017-04-16T12:30:39.569Z,83072
2017-04-16T12:31:40.083Z,112384
2017-04-16T12:32:40.763Z,103456
2017-04-16T12:33:41.143Z,118944
2017-04-16T12:34:41.672Z,113024
2017-04-16T12:35:42.204Z,105536
2017-04-16T12:36:42.736Z,106432
2017-04-16T12:37:43.263Z,120960
2017-04-16T12:38:43.945Z,106912
2017-04-16T12:39:44.325Z,87904
2017-04-16T12:40:44.850Z,86272
2017-04-16T12:41:45.384Z,88160
2017-04-16T12:42:45.911Z,102784
2017-04-16T12:43:46.445Z,76512
2017-04-16T12:44:46.982Z,110144
2017-04-16T12:45:47.510Z,104032
2017-04-16T12:46:48.035Z,95648
2017-04-16T12:47:48.566Z,96960
2017-04-16T12:48:49.090Z,87712
2017-04-16T12:49:49.624Z,102112
2017-04-16T12:50:50.149Z,102720
2017-04-16T12:51:50.681Z,53312
2017-04-16T12:52:51.213Z,51232
2017-04-16T12:53:51.741Z,53216
2017-04-16T12:54:52.290Z,50304
2017-04-16T12:55:52.800Z,49472
2017-04-16T12:56:53.332Z,49984
2017-04-16T12:57:53.861Z,52128
2017-04-16T12:58:54.389Z,61056
2017-04-16T12:59:54.919Z,112896
2017-04-16T13:00:55.450Z,62976
2017-04-16T13:01:55.983Z,52416
2017-04-16T13:02:56.661Z,51232
2017-04-16T13:03:57.045Z,50144
2017-04-16T13:04:57.722Z,53472
2017-04-16T13:05:58.251Z,47520
2017-04-16T13:06:58.641Z,51744
2017-04-16T13:07:59.174Z,103968
2017-04-16T13:08:59.848Z,119904
2017-04-16T13:10:00.232Z,124928
2017-04-16T13:11:00.776Z,132096
2017-04-16T13:12:01.304Z,125664
2017-04-16T13:13:01.829Z,107680
2017-04-16T13:14:02.363Z,135424
2017-04-16T13:15:02.887Z,101536
2017-04-16T13:16:03.423Z,109344
2017-04-16T13:17:03.947Z,59712
2017-04-16T13:18:04.481Z,106368
2017-04-16T13:19:05.010Z,118848
2017-04-16T13:20:05.541Z,155136
2017-04-16T13:21:06.230Z,149120
2017-04-16T13:22:06.597Z,143200
2017-04-16T13:23:07.137Z,136768
2017-04-16T13:24:07.666Z,133088
2017-04-16T13:25:08.219Z,131936
2017-04-16T13:26:08.719Z,133504
2017-04-16T13:27:09.250Z,137920
2017-04-16T13:28:09.781Z,136544
2017-04-16T13:29:10.312Z,135872
2017-04-16T13:30:10.839Z,108704
2017-04-16T13:31:11.373Z,72960
2017-04-16T13:32:11.906Z,73280